createdAt,value
2023-01-23T00:01:36.183Z,84.74
2023-01-23T00:04:05.048Z,84.45
2023-01-23T00:06:34.487Z,84.38
2023-01-23T00:09:02.479Z,83.82
2023-01-23T00:11:32.020Z,83.78
2023-01-23T00:14:01.761Z,83.86
2023-01-23T00:16:32.458Z,84.26
2023-01-23T00:19:00.719Z,84.09
2023-01-23T00:21:30.267Z,84.67
2023-01-23T00:24:02.577Z,85.04
2023-01-23T00:26:33.426Z,85.31
2023-01-23T00:29:01.336Z,84.93
2023-01-23T00:31:31.528Z,84.58
2023-01-23T00:34:01.621Z,84.65
2023-01-23T00:36:32.301Z,84.28
2023-01-23T00:39:01.690Z,84.29
2023-01-23T00:41:30.075Z,84.48
2023-01-23T00:43:58.249Z,84.21
2023-01-23T00:46:26.600Z,84.06
2023-01-23T00:48:54.537Z,84.00
2023-01-23T00:51:23.457Z,83.64
2023-01-23T00:53:51.710Z,83.82
2023-01-23T00:56:23.807Z,83.61
2023-01-23T00:58:51.778Z,83.26
2023-01-23T01:01:20.340Z,83.30
2023-01-23T01:03:48.242Z,83.08
2023-01-23T01:06:17.569Z,83.08
2023-01-23T01:08:45.446Z,83.02
2023-01-23T01:11:13.363Z,83.08
2023-01-23T01:13:43.218Z,83.70
2023-01-23T01:16:11.518Z,83.21
2023-01-23T01:18:39.804Z,83.63
2023-01-23T01:21:10.971Z,83.11
2023-01-23T01:23:39.701Z,83.05
2023-01-23T01:26:08.482Z,82.32
2023-01-23T01:28:39.332Z,82.67
2023-01-23T01:31:10.819Z,82.39
2023-01-23T01:33:39.170Z,82.48
2023-01-23T01:36:10.406Z,82.47
2023-01-23T01:38:38.381Z,82.64
2023-01-23T01:41:07.334Z,82.85
2023-01-23T01:43:36.028Z,83.42
2023-01-23T01:46:13.836Z,83.69
2023-01-23T01:48:49.417Z,83.55
2023-01-23T01:51:22.469Z,83.59
2023-01-23T01:53:56.258Z,83.43
2023-01-23T01:56:24.605Z,83.71
2023-01-23T01:58:54.598Z,83.63
2023-01-23T02:01:23.794Z,83.95
2023-01-23T02:03:53.025Z,84.07
2023-01-23T02:06:21.462Z,84.36
2023-01-23T02:08:58.077Z,84.75
2023-01-23T02:11:26.305Z,84.28
2023-01-23T02:13:56.774Z,84.11
2023-01-23T02:16:29.440Z,83.66
2023-01-23T02:19:00.810Z,84.03
2023-01-23T02:21:29.566Z,84.00
2023-01-23T02:24:19.642Z,83.42
2023-01-23T02:26:48.867Z,83.28
2023-01-23T02:29:19.251Z,83.93
2023-01-23T02:31:56.316Z,83.86
2023-01-23T02:34:26.106Z,83.78
2023-01-23T02:36:59.399Z,83.54
2023-01-23T02:39:27.563Z,84.01
2023-01-23T02:41:59.669Z,83.65
2023-01-23T02:44:42.156Z,83.68
2023-01-23T02:47:12.374Z,83.58
2023-01-23T02:49:42.840Z,83.70
2023-01-23T02:52:11.447Z,84.05
2023-01-23T02:54:40.757Z,83.76
2023-01-23T02:57:10.177Z,83.79
2023-01-23T02:59:56.866Z,83.63
2023-01-23T03:02:26.579Z,83.36
2023-01-23T03:04:57.003Z,83.10
2023-01-23T03:07:24.916Z,82.49
2023-01-23T03:09:52.745Z,82.71
2023-01-23T03:12:22.694Z,82.72
2023-01-23T03:14:54.272Z,82.47
2023-01-23T03:17:22.752Z,82.66
2023-01-23T03:19:50.738Z,82.98
2023-01-23T03:22:18.748Z,82.67
2023-01-23T03:24:46.712Z,82.71
2023-01-23T03:27:14.604Z,83.17
2023-01-23T03:30:05.719Z,83.55
2023-01-23T03:32:34.561Z,83.27
2023-01-23T03:35:02.442Z,83.54
2023-01-23T03:37:30.911Z,83.77
2023-01-23T03:40:16.767Z,84.14
2023-01-23T03:42:44.988Z,83.56
2023-01-23T03:45:17.094Z,83.70
2023-01-23T03:47:45.708Z,83.51
2023-01-23T03:50:13.804Z,82.91
2023-01-23T03:52:42.384Z,82.82
2023-01-23T03:55:11.477Z,82.77
2023-01-23T03:57:40.326Z,82.38
2023-01-23T04:00:35.698Z,82.90
2023-01-23T04:03:07.247Z,82.53
2023-01-23T04:05:37.200Z,82.18
2023-01-23T04:08:06.835Z,82.47
2023-01-23T04:10:36.310Z,82.17
2023-01-23T04:13:09.371Z,82.47
2023-01-23T04:15:38.646Z,82.73
2023-01-23T04:18:08.136Z,81.92
2023-01-23T04:20:36.060Z,82.09
2023-01-23T04:23:03.995Z,82.11
2023-01-23T04:25:32.072Z,82.07
2023-01-23T04:27:59.913Z,82.05
2023-01-23T04:30:28.744Z,81.51
2023-01-23T04:33:01.473Z,81.73
2023-01-23T04:35:29.745Z,81.76
2023-01-23T04:37:57.762Z,81.57
2023-01-23T04:40:26.730Z,81.66
2023-01-23T04:42:58.594Z,81.33
2023-01-23T04:45:40.783Z,81.30
2023-01-23T04:48:39.099Z,81.74
2023-01-23T04:51:07.705Z,81.83
2023-01-23T04:53:36.080Z,81.19
2023-01-23T04:56:04.113Z,81.59
2023-01-23T04:58:32.213Z,81.31
2023-01-23T05:01:04.339Z,81.63
2023-01-23T05:03:35.173Z,81.19
2023-01-23T05:06:04.938Z,80.88
2023-01-23T05:08:32.868Z,80.98
2023-01-23T05:11:13.673Z,81.35
2023-01-23T05:13:41.730Z,80.93
2023-01-23T05:16:09.757Z,80.97
2023-01-23T05:18:57.608Z,81.09
2023-01-23T05:21:27.097Z,80.25
2023-01-23T05:23:55.195Z,81.00
2023-01-23T05:26:23.482Z,80.84
2023-01-23T05:28:51.476Z,80.30
2023-01-23T05:31:21.298Z,80.81
2023-01-23T05:34:09.242Z,80.46
2023-01-23T05:36:41.663Z,80.43
2023-01-23T05:39:10.130Z,80.34
2023-01-23T05:41:38.241Z,79.99
2023-01-23T05:44:26.784Z,80.65
2023-01-23T05:47:00.706Z,79.87
2023-01-23T05:49:28.786Z,79.98
2023-01-23T05:51:58.828Z,80.35
2023-01-23T05:54:27.466Z,80.31
2023-01-23T05:56:55.336Z,80.26
2023-01-23T05:59:52.568Z,79.86
2023-01-23T06:02:43.032Z,79.62
2023-01-23T06:05:33.465Z,79.78
2023-01-23T06:08:06.912Z,79.51
2023-01-23T06:10:37.184Z,79.27
2023-01-23T06:13:05.245Z,79.43
2023-01-23T06:15:33.255Z,80.08
2023-01-23T06:18:05.902Z,79.64
2023-01-23T06:20:34.114Z,79.94
2023-01-23T06:23:03.560Z,80.13
2023-01-23T06:25:32.933Z,80.66
2023-01-23T06:28:03.637Z,80.68
2023-01-23T06:30:33.390Z,80.23
2023-01-23T06:33:01.607Z,80.50
2023-01-23T06:35:37.331Z,80.45
2023-01-23T06:38:07.129Z,80.91
2023-01-23T06:40:36.475Z,80.49
2023-01-23T06:43:22.520Z,80.21
2023-01-23T06:45:52.172Z,80.29
2023-01-23T06:48:20.869Z,80.06
2023-01-23T06:50:49.832Z,79.49
2023-01-23T06:53:19.119Z,79.65
2023-01-23T06:55:50.303Z,79.36
2023-01-23T06:58:18.899Z,79.28
2023-01-23T07:00:47.134Z,79.49
2023-01-23T07:03:33.497Z,78.63
2023-01-23T07:06:03.184Z,78.86
2023-01-23T07:08:31.082Z,78.36
2023-01-23T07:11:00.393Z,78.64
2023-01-23T07:13:29.256Z,78.48
2023-01-23T07:15:57.280Z,78.02
2023-01-23T07:18:28.165Z,78.49
2023-01-23T07:20:56.685Z,78.31
2023-01-23T07:23:24.706Z,77.68
2023-01-23T07:25:52.565Z,77.61
2023-01-23T07:28:21.775Z,77.94
2023-01-23T07:30:51.439Z,78.00
2023-01-23T07:33:19.307Z,77.57
2023-01-23T07:35:47.192Z,77.77
2023-01-23T07:38:15.415Z,77.31
2023-01-23T07:40:44.417Z,77.35
2023-01-23T07:43:12.589Z,77.21
2023-01-23T07:45:41.916Z,77.30
2023-01-23T07:48:10.038Z,77.03
2023-01-23T07:50:38.584Z,76.77
2023-01-23T07:53:06.724Z,76.65
2023-01-23T07:55:34.980Z,76.18
2023-01-23T07:58:02.890Z,76.11
2023-01-23T08:00:31.375Z,75.53
2023-01-23T08:03:00.848Z,75.35
2023-01-23T08:05:29.028Z,75.39
2023-01-23T08:08:12.184Z,75.08
2023-01-23T08:10:40.921Z,75.14
2023-01-23T08:13:08.774Z,75.00
2023-01-23T08:15:38.261Z,75.26
2023-01-23T08:18:07.858Z,75.10
2023-01-23T08:20:35.870Z,75.72
2023-01-23T08:23:03.686Z,74.72
2023-01-23T08:25:31.580Z,74.47
2023-01-23T08:27:59.394Z,74.48
2023-01-23T08:30:27.291Z,74.65
2023-01-23T08:32:55.248Z,74.40
2023-01-23T08:35:28.010Z,74.60
2023-01-23T08:37:55.984Z,74.49
2023-01-23T08:40:24.028Z,74.52
2023-01-23T08:42:51.912Z,74.18
2023-01-23T08:45:19.791Z,74.19
2023-01-23T08:47:47.712Z,74.27
2023-01-23T08:50:15.680Z,73.90
2023-01-23T08:52:44.975Z,73.65
2023-01-23T08:55:13.019Z,73.63
2023-01-23T08:57:40.844Z,73.53
2023-01-23T09:00:10.606Z,72.95
2023-01-23T09:02:39.430Z,73.33
2023-01-23T09:05:08.429Z,72.86
2023-01-23T09:07:37.936Z,72.74
2023-01-23T09:10:08.906Z,72.96
2023-01-23T09:12:37.022Z,72.68
2023-01-23T09:15:05.157Z,72.88
2023-01-23T09:17:33.024Z,72.60
2023-01-23T09:20:01.479Z,72.55
2023-01-23T09:22:29.372Z,72.55
2023-01-23T09:24:57.211Z,72.37
2023-01-23T09:27:26.773Z,72.35
2023-01-23T09:29:54.788Z,72.62
2023-01-23T09:32:22.735Z,72.41
2023-01-23T09:34:50.607Z,72.34
2023-01-23T09:37:18.906Z,72.31
2023-01-23T09:39:46.859Z,72.16
2023-01-23T09:42:18.904Z,72.08
2023-01-23T09:44:52.727Z,71.93
2023-01-23T09:47:27.090Z,71.89
2023-01-23T09:50:00.396Z,71.86
2023-01-23T09:52:31.997Z,72.08
2023-01-23T09:55:05.434Z,72.00
2023-01-23T09:57:37.694Z,71.81
2023-01-23T10:00:14.151Z,72.29
2023-01-23T10:02:44.404Z,72.37
2023-01-23T10:05:15.705Z,72.60
2023-01-23T10:07:59.141Z,72.43
2023-01-23T10:10:45.299Z,72.63
2023-01-23T10:13:17.450Z,72.16
2023-01-23T10:16:13.145Z,72.25
2023-01-23T10:18:48.570Z,72.41
2023-01-23T10:21:28.111Z,71.90
2023-01-23T10:24:05.838Z,71.67
2023-01-23T10:26:40.960Z,71.33
2023-01-23T10:29:17.023Z,71.09
2023-01-23T10:31:51.160Z,70.77
2023-01-23T10:34:26.477Z,70.75
2023-01-23T10:37:08.595Z,70.76
2023-01-23T10:39:48.531Z,71.08
2023-01-23T10:42:20.236Z,70.98
2023-01-23T10:44:48.526Z,71.40
2023-01-23T10:47:22.448Z,71.36
2023-01-23T10:49:50.557Z,70.40
2023-01-23T10:52:33.701Z,70.77
2023-01-23T10:55:01.763Z,70.20
2023-01-23T10:57:32.018Z,70.06
2023-01-23T11:00:04.370Z,70.58
2023-01-23T11:02:35.704Z,70.13
2023-01-23T11:05:05.611Z,70.08
2023-01-23T11:07:40.400Z,70.93
2023-01-23T11:10:19.421Z,70.81
2023-01-23T11:12:49.463Z,70.55
2023-01-23T11:15:23.214Z,70.93
2023-01-23T11:17:54.726Z,71.82
2023-01-23T11:20:28.999Z,71.92
2023-01-23T11:23:06.010Z,72.16
2023-01-23T11:25:37.491Z,71.30
2023-01-23T11:28:20.310Z,71.26
2023-01-23T11:30:54.186Z,71.84
2023-01-23T11:33:42.699Z,71.27
2023-01-23T11:36:34.338Z,70.99
2023-01-23T11:39:07.748Z,71.41
2023-01-23T11:41:37.223Z,71.35
2023-01-23T11:44:11.327Z,70.94
2023-01-23T11:46:57.806Z,71.65
2023-01-23T11:50:00.096Z,71.73
2023-01-23T11:52:39.054Z,71.77
2023-01-23T11:55:24.697Z,71.37
2023-01-23T11:58:03.411Z,71.19
2023-01-23T12:00:36.912Z,71.77
2023-01-23T12:03:37.334Z,72.60
2023-01-23T12:06:24.189Z,71.66
2023-01-23T12:09:01.735Z,72.44
2023-01-23T12:11:37.645Z,73.05
2023-01-23T12:14:14.120Z,72.38
2023-01-23T12:17:01.857Z,72.57
2023-01-23T12:19:47.484Z,73.21
2023-01-23T12:22:23.991Z,73.10
2023-01-23T12:25:04.549Z,73.12
2023-01-23T12:27:42.028Z,72.88
2023-01-23T12:30:29.409Z,73.13
2023-01-23T12:33:28.465Z,73.82
2023-01-23T12:36:06.261Z,73.59
2023-01-23T12:38:43.786Z,73.69
2023-01-23T12:41:22.449Z,72.85
2023-01-23T12:43:56.673Z,73.51
2023-01-23T12:46:30.141Z,73.43
2023-01-23T12:49:07.106Z,72.71
2023-01-23T12:51:38.630Z,73.42
2023-01-23T12:54:16.490Z,72.58
2023-01-23T12:56:47.131Z,73.22
2023-01-23T12:59:25.695Z,72.98
2023-01-23T13:02:01.704Z,73.03
2023-01-23T13:04:48.057Z,74.00
2023-01-23T13:07:27.206Z,74.16
2023-01-23T13:10:52.129Z,73.32
2023-01-23T13:13:21.435Z,73.74
2023-01-23T13:16:04.374Z,72.85
2023-01-23T13:18:52.238Z,72.99
2023-01-23T13:21:34.268Z,73.50
2023-01-23T13:24:50.394Z,72.44
2023-01-23T13:27:47.056Z,72.74
2023-01-23T13:30:40.454Z,72.47
2023-01-23T13:33:51.587Z,72.27
2023-01-23T13:36:37.677Z,72.31
2023-01-23T13:39:29.702Z,72.43
2023-01-23T13:42:40.149Z,72.14
2023-01-23T13:45:30.691Z,72.44
2023-01-23T14:20:21.448Z,71.93
2023-01-23T14:22:55.535Z,71.29
2023-01-23T14:25:23.796Z,71.35
2023-01-23T14:28:03.523Z,71.01
2023-01-23T14:30:31.671Z,71.75
2023-01-23T14:33:00.043Z,71.44
2023-01-23T14:35:32.187Z,71.85
2023-01-23T14:38:02.674Z,70.97
2023-01-23T14:40:40.111Z,71.51
2023-01-23T14:43:19.665Z,71.30
2023-01-23T14:45:49.650Z,71.09
2023-01-23T14:48:19.039Z,71.41
2023-01-23T14:50:48.437Z,71.28
2023-01-23T14:53:17.560Z,72.16
2023-01-23T14:55:50.748Z,71.99
2023-01-23T14:58:23.445Z,72.26
2023-01-23T15:00:54.510Z,73.20
2023-01-23T15:03:43.844Z,73.41
2023-01-23T15:06:16.512Z,73.34
2023-01-23T15:08:44.713Z,73.79
2023-01-23T15:11:13.535Z,74.22
2023-01-23T15:13:45.362Z,74.42
2023-01-23T15:16:16.719Z,74.53
2023-01-23T15:18:54.573Z,73.83
2023-01-23T15:21:32.773Z,74.60
2023-01-23T15:24:21.588Z,73.94
2023-01-23T15:27:23.693Z,74.21
2023-01-23T15:29:51.901Z,75.09
2023-01-23T15:32:26.142Z,74.53
2023-01-23T15:34:57.615Z,74.22
2023-01-23T15:37:28.782Z,74.67
2023-01-23T15:40:00.743Z,75.38
2023-01-23T15:42:31.786Z,75.23
2023-01-23T15:45:01.538Z,75.26
2023-01-23T15:47:32.581Z,75.28
2023-01-23T15:50:01.614Z,74.94
2023-01-23T15:52:32.517Z,75.32
2023-01-23T15:55:04.067Z,75.04
2023-01-23T15:57:31.980Z,75.51
2023-01-23T16:00:00.197Z,75.69
2023-01-23T16:02:31.479Z,75.97
2023-01-23T16:05:01.885Z,76.02
2023-01-23T16:07:34.493Z,76.29
2023-01-23T16:10:04.305Z,75.79
2023-01-23T16:12:35.437Z,76.25
2023-01-23T16:15:03.442Z,76.38
2023-01-23T16:17:31.295Z,76.46
2023-01-23T16:19:59.197Z,76.01
2023-01-23T16:22:29.450Z,76.36
2023-01-23T16:24:59.678Z,75.92
2023-01-23T16:27:28.232Z,76.21
2023-01-23T16:29:57.119Z,76.07
2023-01-23T16:32:25.499Z,76.00
2023-01-23T16:34:53.605Z,75.94
2023-01-23T16:37:21.692Z,75.63
2023-01-23T16:39:49.583Z,76.16
2023-01-23T16:42:31.482Z,75.44
2023-01-23T16:44:59.412Z,76.05
2023-01-23T16:47:27.303Z,75.72
2023-01-23T16:49:55.201Z,75.92
2023-01-23T16:52:26.205Z,75.36
2023-01-23T16:54:56.095Z,75.76
2023-01-23T16:57:25.829Z,75.55
2023-01-23T16:59:56.313Z,75.75
2023-01-23T17:02:30.295Z,75.42
2023-01-23T17:04:58.304Z,75.65
2023-01-23T17:07:26.630Z,75.55
2023-01-23T17:09:54.537Z,75.45
2023-01-23T17:12:28.468Z,75.58
2023-01-23T17:14:57.481Z,75.58
2023-01-23T17:17:31.403Z,75.24
2023-01-23T17:20:01.086Z,75.57
2023-01-23T17:22:31.453Z,75.79
2023-01-23T17:24:59.566Z,75.87
2023-01-23T17:27:28.957Z,75.69
2023-01-23T17:29:56.906Z,75.79
2023-01-23T17:32:30.538Z,75.75
2023-01-23T17:35:01.696Z,75.52
2023-01-23T17:37:30.925Z,76.04
2023-01-23T17:39:58.888Z,75.79
2023-01-23T17:42:28.317Z,75.55
2023-01-23T17:44:56.160Z,75.80
2023-01-23T17:47:24.092Z,76.08
2023-01-23T17:49:54.549Z,75.96
2023-01-23T17:52:24.756Z,75.74
2023-01-23T17:54:54.459Z,75.85
2023-01-23T17:57:22.947Z,76.14
2023-01-23T17:59:55.500Z,76.17
2023-01-23T18:02:30.198Z,75.79
2023-01-23T18:04:58.175Z,76.02
2023-01-23T18:07:26.045Z,75.87
2023-01-23T18:09:56.172Z,76.36
2023-01-23T18:12:31.546Z,76.31
2023-01-23T18:15:08.132Z,76.39
2023-01-23T18:17:46.088Z,76.65
2023-01-23T18:20:19.081Z,76.40
2023-01-23T18:22:47.709Z,76.60
2023-01-23T18:25:16.923Z,76.97
2023-01-23T18:27:49.981Z,77.01
2023-01-23T18:30:34.354Z,77.13
2023-01-23T18:33:34.029Z,77.19
2023-01-23T18:36:16.267Z,77.15
2023-01-23T18:38:59.744Z,76.96
2023-01-23T18:41:28.998Z,77.02
2023-01-23T18:44:04.691Z,76.82
2023-01-23T18:46:34.457Z,77.05
2023-01-23T18:49:03.234Z,77.03
2023-01-23T18:51:39.879Z,76.97
2023-01-23T18:54:20.742Z,76.67
2023-01-23T18:56:58.749Z,76.78
2023-01-23T18:59:34.559Z,76.63
2023-01-23T19:02:20.964Z,76.77
2023-01-23T19:04:56.306Z,76.71
2023-01-23T19:07:24.703Z,76.42
2023-01-23T19:09:53.450Z,76.72
2023-01-23T19:12:28.999Z,76.39
2023-01-23T19:15:19.064Z,76.67
2023-01-23T19:17:52.197Z,76.39
2023-01-23T19:20:32.921Z,76.38
2023-01-23T19:23:12.222Z,76.57
2023-01-23T19:25:40.584Z,76.51
2023-01-23T19:28:11.542Z,76.25
2023-01-23T19:30:39.987Z,76.37
2023-01-23T19:33:15.797Z,75.95
2023-01-23T19:35:44.078Z,76.06
2023-01-23T19:38:12.174Z,76.08
2023-01-23T19:40:40.046Z,76.13
2023-01-23T19:43:14.485Z,76.43
2023-01-23T19:45:43.174Z,76.47
2023-01-23T19:48:13.037Z,76.66
2023-01-23T19:50:41.415Z,76.61
2023-01-23T19:53:11.694Z,76.66
2023-01-23T19:55:39.617Z,76.33
2023-01-23T19:58:08.188Z,76.46
2023-01-23T20:00:36.974Z,76.71
2023-01-23T20:03:05.283Z,76.69
2023-01-23T20:05:34.637Z,76.73
2023-01-23T20:08:02.543Z,76.71
2023-01-23T20:10:30.517Z,76.92
2023-01-23T20:12:58.420Z,77.03
2023-01-23T20:15:27.642Z,77.10
2023-01-23T20:17:55.605Z,77.43
2023-01-23T20:20:23.996Z,77.27
2023-01-23T20:22:54.821Z,77.25
2023-01-23T20:25:23.069Z,77.33
2023-01-23T20:27:51.471Z,77.31
2023-01-23T20:30:21.906Z,77.42
2023-01-23T20:32:50.188Z,77.26
2023-01-23T20:35:18.108Z,77.18
2023-01-23T20:37:46.025Z,76.81
2023-01-23T20:40:15.455Z,76.87
2023-01-23T20:42:43.302Z,77.16
2023-01-23T20:45:11.510Z,77.07
2023-01-23T20:47:39.636Z,77.38
2023-01-23T20:50:08.220Z,77.34
2023-01-23T20:52:53.628Z,77.86
2023-01-23T20:55:23.168Z,77.79
2023-01-23T20:58:08.847Z,77.68
2023-01-23T21:00:36.803Z,77.91
2023-01-23T21:03:04.691Z,78.12
2023-01-23T21:05:32.664Z,78.04
2023-01-23T21:08:00.512Z,78.01
2023-01-23T21:10:29.863Z,78.18
2023-01-23T21:12:57.871Z,78.09
2023-01-23T21:15:25.740Z,78.19
2023-01-23T21:17:53.626Z,77.99
2023-01-23T21:20:21.577Z,78.25
2023-01-23T21:22:49.568Z,78.15
2023-01-23T21:25:17.517Z,77.82
2023-01-23T21:27:46.808Z,77.95
2023-01-23T21:30:15.312Z,77.68
2023-01-23T21:32:43.586Z,77.87
2023-01-23T21:35:11.789Z,78.13
2023-01-23T21:37:39.734Z,78.98
2023-01-23T21:40:09.465Z,77.91
2023-01-23T21:42:37.555Z,77.72
2023-01-23T21:45:07.783Z,77.51
2023-01-23T21:47:35.696Z,77.55
2023-01-23T21:50:04.232Z,77.54
2023-01-23T21:52:32.157Z,77.48
2023-01-23T21:55:00.041Z,77.73
2023-01-23T21:57:28.166Z,77.52
2023-01-23T22:00:13.935Z,77.58
2023-01-23T22:02:44.021Z,77.53
2023-01-23T22:05:11.962Z,77.86
2023-01-23T22:07:40.057Z,77.59
2023-01-23T22:10:09.500Z,77.66
2023-01-23T22:12:37.513Z,77.68
2023-01-23T22:15:05.895Z,77.61
2023-01-23T22:17:33.850Z,77.61
2023-01-23T22:20:03.105Z,77.71
2023-01-23T22:22:30.933Z,77.72
2023-01-23T22:24:58.990Z,77.82
2023-01-23T22:27:27.007Z,77.67
2023-01-23T22:29:54.907Z,77.58
2023-01-23T22:32:22.927Z,77.42
2023-01-23T22:34:50.919Z,77.48
2023-01-23T22:37:22.169Z,77.43
2023-01-23T22:39:50.111Z,77.79
2023-01-23T22:42:19.044Z,77.72
2023-01-23T22:44:47.050Z,77.65
2023-01-23T22:47:14.967Z,77.65
2023-01-23T22:49:43.905Z,77.75
2023-01-23T22:52:11.855Z,77.82
2023-01-23T22:54:41.165Z,78.04
2023-01-23T22:57:09.006Z,77.85
2023-01-23T22:59:36.881Z,77.64
2023-01-23T23:02:04.705Z,77.70
2023-01-23T23:04:32.830Z,77.97
2023-01-23T23:07:00.774Z,77.62
2023-01-23T23:09:29.520Z,77.51
2023-01-23T23:11:58.748Z,77.72
2023-01-23T23:14:26.705Z,78.18
2023-01-23T23:16:54.498Z,77.75
2023-01-23T23:19:22.568Z,78.02
2023-01-23T23:21:50.465Z,78.01
2023-01-23T23:24:18.448Z,78.12
2023-01-23T23:26:46.358Z,78.54
2023-01-23T23:29:16.789Z,78.34
2023-01-23T23:31:44.774Z,78.67
2023-01-23T23:34:12.769Z,78.86
2023-01-23T23:36:40.581Z,79.27
2023-01-23T23:39:08.424Z,79.39
2023-01-23T23:41:36.910Z,80.32
2023-01-23T23:44:04.812Z,80.23
2023-01-23T23:46:34.032Z,80.20
2023-01-23T23:49:01.987Z,80.33
2023-01-23T23:51:30.225Z,80.04
2023-01-23T23:53:58.198Z,79.70
2023-01-23T23:56:28.164Z,79.92
2023-01-23T23:58:57.261Z,79.61
